sensor_id;sensor_type;location;lat;lon;timestamp;P1;durP1;ratioP1;P2;durP2;ratioP2
79710;SDS011;69465;51.630;6.570;2023-06-14T00:01:30;11.90;;;5.60;;
79710;SDS011;69465;51.630;6.570;2023-06-14T00:03:56;8.43;;;5.10;;
79710;SDS011;69465;51.630;6.570;2023-06-14T00:06:23;8.47;;;5.40;;
79710;SDS011;69465;51.630;6.570;2023-06-14T00:08:50;6.80;;;5.10;;
79710;SDS011;69465;51.630;6.570;2023-06-14T00:11:17;6.47;;;4.83;;
79710;SDS011;69465;51.630;6.570;2023-06-14T00:13:44;8.00;;;5.57;;
79710;SDS011;69465;51.630;6.570;2023-06-14T00:16:10;6.80;;;5.10;;
79710;SDS011;69465;51.630;6.570;2023-06-14T00:18:37;5.77;;;4.90;;
79710;SDS011;69465;51.630;6.570;2023-06-14T00:21:05;6.00;;;5.40;;
79710;SDS011;69465;51.630;6.570;2023-06-14T00:23:31;7.47;;;5.20;;
79710;SDS011;69465;51.630;6.570;2023-06-14T00:25:58;7.03;;;4.53;;
79710;SDS011;69465;51.630;6.570;2023-06-14T00:28:25;8.50;;;4.93;;
79710;SDS011;69465;51.630;6.570;2023-06-14T00:30:51;6.47;;;5.10;;
79710;SDS011;69465;51.630;6.570;2023-06-14T00:33:18;6.43;;;4.77;;
79710;SDS011;69465;51.630;6.570;2023-06-14T00:35:45;7.97;;;5.07;;
79710;SDS011;69465;51.630;6.570;2023-06-14T00:38:11;7.90;;;4.90;;
79710;SDS011;69465;51.630;6.570;2023-06-14T00:40:39;8.17;;;5.03;;
79710;SDS011;69465;51.630;6.570;2023-06-14T00:43:05;7.23;;;5.23;;
79710;SDS011;69465;51.630;6.570;2023-06-14T00:45:32;6.73;;;4.63;;
79710;SDS011;69465;51.630;6.570;2023-06-14T00:48:00;6.63;;;4.90;;
79710;SDS011;69465;51.630;6.570;2023-06-14T00:50:27;5.83;;;4.33;;
79710;SDS011;69465;51.630;6.570;2023-06-14T00:52:55;6.67;;;4.40;;
79710;SDS011;69465;51.630;6.570;2023-06-14T00:55:22;5.50;;;4.90;;
79710;SDS011;69465;51.630;6.570;2023-06-14T00:57:49;7.17;;;4.93;;
79710;SDS011;69465;51.630;6.570;2023-06-14T01:00:17;5.17;;;4.60;;
79710;SDS011;69465;51.630;6.570;2023-06-14T01:02:43;5.50;;;4.70;;
79710;SDS011;69465;51.630;6.570;2023-06-14T01:05:10;7.80;;;4.60;;
79710;SDS011;69465;51.630;6.570;2023-06-14T01:07:46;7.33;;;4.57;;
79710;SDS011;69465;51.630;6.570;2023-06-14T01:13:12;6.70;;;4.70;;
79710;SDS011;69465;51.630;6.570;2023-06-14T01:15:45;4.80;;;4.10;;
79710;SDS011;69465;51.630;6.570;2023-06-14T01:18:13;6.77;;;4.57;;
79710;SDS011;69465;51.630;6.570;2023-06-14T01:20:40;5.50;;;4.30;;
79710;SDS011;69465;51.630;6.570;2023-06-14T01:23:07;5.10;;;3.57;;
79710;SDS011;69465;51.630;6.570;2023-06-14T01:25:34;6.90;;;4.40;;
79710;SDS011;69465;51.630;6.570;2023-06-14T01:28:01;5.70;;;4.40;;
79710;SDS011;69465;51.630;6.570;2023-06-14T01:30:30;6.23;;;4.60;;
79710;SDS011;69465;51.630;6.570;2023-06-14T01:32:58;7.17;;;4.47;;
79710;SDS011;69465;51.630;6.570;2023-06-14T01:35:25;5.53;;;4.13;;
79710;SDS011;69465;51.630;6.570;2023-06-14T01:37:52;4.93;;;3.93;;
79710;SDS011;69465;51.630;6.570;2023-06-14T01:40:20;5.63;;;4.33;;
79710;SDS011;69465;51.630;6.570;2023-06-14T01:42:47;5.23;;;4.27;;
79710;SDS011;69465;51.630;6.570;2023-06-14T01:45:16;5.67;;;3.93;;
79710;SDS011;69465;51.630;6.570;2023-06-14T01:47:44;6.53;;;4.07;;
79710;SDS011;69465;51.630;6.570;2023-06-14T01:50:12;6.27;;;3.93;;
79710;SDS011;69465;51.630;6.570;2023-06-14T01:52:40;7.27;;;4.30;;
79710;SDS011;69465;51.630;6.570;2023-06-14T01:55:06;7.37;;;4.40;;
79710;SDS011;69465;51.630;6.570;2023-06-14T01:57:33;8.10;;;4.13;;
79710;SDS011;69465;51.630;6.570;2023-06-14T02:00:00;4.53;;;3.73;;
79710;SDS011;69465;51.630;6.570;2023-06-14T02:02:26;7.30;;;4.43;;
79710;SDS011;69465;51.630;6.570;2023-06-14T02:04:53;5.27;;;3.90;;
79710;SDS011;69465;51.630;6.570;2023-06-14T02:07:20;4.70;;;4.20;;
79710;SDS011;69465;51.630;6.570;2023-06-14T02:09:47;8.27;;;4.10;;
79710;SDS011;69465;51.630;6.570;2023-06-14T02:12:13;6.47;;;4.23;;
79710;SDS011;69465;51.630;6.570;2023-06-14T02:14:40;3.93;;;3.50;;
79710;SDS011;69465;51.630;6.570;2023-06-14T02:17:07;5.73;;;4.00;;
79710;SDS011;69465;51.630;6.570;2023-06-14T02:19:33;7.33;;;3.83;;
79710;SDS011;69465;51.630;6.570;2023-06-14T02:22:00;7.13;;;3.90;;
79710;SDS011;69465;51.630;6.570;2023-06-14T02:24:27;4.33;;;3.80;;
79710;SDS011;69465;51.630;6.570;2023-06-14T02:26:53;5.83;;;4.00;;
79710;SDS011;69465;51.630;6.570;2023-06-14T02:29:20;5.63;;;4.23;;
79710;SDS011;69465;51.630;6.570;2023-06-14T02:31:47;5.50;;;4.17;;
79710;SDS011;69465;51.630;6.570;2023-06-14T02:34:14;4.67;;;3.73;;
79710;SDS011;69465;51.630;6.570;2023-06-14T02:36:41;4.80;;;3.80;;
79710;SDS011;69465;51.630;6.570;2023-06-14T02:39:08;3.77;;;3.33;;
79710;SDS011;69465;51.630;6.570;2023-06-14T02:41:35;5.70;;;3.90;;
79710;SDS011;69465;51.630;6.570;2023-06-14T02:44:02;5.93;;;3.80;;
79710;SDS011;69465;51.630;6.570;2023-06-14T02:46:29;6.90;;;4.33;;
79710;SDS011;69465;51.630;6.570;2023-06-14T02:48:56;5.07;;;4.00;;
79710;SDS011;69465;51.630;6.570;2023-06-14T02:51:23;6.30;;;3.60;;
79710;SDS011;69465;51.630;6.570;2023-06-14T02:53:50;5.73;;;3.63;;
79710;SDS011;69465;51.630;6.570;2023-06-14T02:56:17;6.87;;;4.33;;
79710;SDS011;69465;51.630;6.570;2023-06-14T02:58:43;4.83;;;3.50;;
79710;SDS011;69465;51.630;6.570;2023-06-14T03:01:10;6.83;;;4.07;;
79710;SDS011;69465;51.630;6.570;2023-06-14T03:03:37;5.10;;;3.60;;
79710;SDS011;69465;51.630;6.570;2023-06-14T03:06:04;4.93;;;3.80;;
79710;SDS011;69465;51.630;6.570;2023-06-14T03:08:31;6.23;;;3.83;;
79710;SDS011;69465;51.630;6.570;2023-06-14T03:10:58;6.67;;;4.10;;
79710;SDS011;69465;51.630;6.570;2023-06-14T03:13:25;7.30;;;3.70;;
79710;SDS011;69465;51.630;6.570;2023-06-14T03:15:51;5.00;;;3.60;;
79710;SDS011;69465;51.630;6.570;2023-06-14T03:18:18;5.27;;;3.97;;
79710;SDS011;69465;51.630;6.570;2023-06-14T03:20:45;5.13;;;4.13;;
79710;SDS011;69465;51.630;6.570;2023-06-14T03:23:12;4.87;;;3.37;;
79710;SDS011;69465;51.630;6.570;2023-06-14T03:25:38;4.17;;;3.70;;
79710;SDS011;69465;51.630;6.570;2023-06-14T03:28:05;7.23;;;3.70;;
79710;SDS011;69465;51.630;6.570;2023-06-14T03:30:32;5.03;;;3.60;;
79710;SDS011;69465;51.630;6.570;2023-06-14T03:32:59;5.17;;;4.10;;
79710;SDS011;69465;51.630;6.570;2023-06-14T03:35:26;6.37;;;3.90;;
79710;SDS011;69465;51.630;6.570;2023-06-14T03:37:54;5.77;;;3.83;;
79710;SDS011;69465;51.630;6.570;2023-06-14T03:40:21;6.13;;;3.93;;
79710;SDS011;69465;51.630;6.570;2023-06-14T03:42:48;5.70;;;3.90;;
79710;SDS011;69465;51.630;6.570;2023-06-14T03:45:14;6.30;;;3.67;;
79710;SDS011;69465;51.630;6.570;2023-06-14T03:47:41;7.03;;;4.20;;
79710;SDS011;69465;51.630;6.570;2023-06-14T03:50:08;5.03;;;3.60;;
79710;SDS011;69465;51.630;6.570;2023-06-14T03:52:35;5.20;;;3.57;;
79710;SDS011;69465;51.630;6.570;2023-06-14T03:55:02;6.50;;;3.67;;
79710;SDS011;69465;51.630;6.570;2023-06-14T03:57:32;7.00;;;3.80;;
79710;SDS011;69465;51.630;6.570;2023-06-14T03:59:58;3.93;;;3.23;;
79710;SDS011;69465;51.630;6.570;2023-06-14T04:02:25;6.17;;;4.00;;
79710;SDS011;69465;51.630;6.570;2023-06-14T04:04:52;7.47;;;4.00;;
79710;SDS011;69465;51.630;6.570;2023-06-14T04:07:19;5.70;;;3.83;;
79710;SDS011;69465;51.630;6.570;2023-06-14T04:09:46;6.10;;;3.80;;
79710;SDS011;69465;51.630;6.570;2023-06-14T04:12:13;7.23;;;4.33;;
79710;SDS011;69465;51.630;6.570;2023-06-14T04:14:40;4.60;;;4.13;;
79710;SDS011;69465;51.630;6.570;2023-06-14T04:17:06;5.87;;;3.30;;
79710;SDS011;69465;51.630;6.570;2023-06-14T04:19:33;5.90;;;3.60;;
79710;SDS011;69465;51.630;6.570;2023-06-14T04:22:00;11.23;;;4.17;;
79710;SDS011;69465;51.630;6.570;2023-06-14T04:24:27;7.47;;;3.73;;
79710;SDS011;69465;51.630;6.570;2023-06-14T04:26:54;5.50;;;3.80;;
79710;SDS011;69465;51.630;6.570;2023-06-14T04:29:21;5.37;;;3.87;;
79710;SDS011;69465;51.630;6.570;2023-06-14T04:31:47;6.43;;;3.63;;
79710;SDS011;69465;51.630;6.570;2023-06-14T04:34:14;4.60;;;3.47;;
79710;SDS011;69465;51.630;6.570;2023-06-14T04:36:41;5.00;;;3.60;;
79710;SDS011;69465;51.630;6.570;2023-06-14T04:39:09;7.33;;;3.50;;
79710;SDS011;69465;51.630;6.570;2023-06-14T04:41:35;5.53;;;3.27;;
79710;SDS011;69465;51.630;6.570;2023-06-14T04:44:02;5.33;;;3.30;;
79710;SDS011;69465;51.630;6.570;2023-06-14T04:46:29;5.73;;;3.53;;
79710;SDS011;69465;51.630;6.570;2023-06-14T04:48:56;6.33;;;4.00;;
79710;SDS011;69465;51.630;6.570;2023-06-14T04:51:23;6.13;;;3.63;;
79710;SDS011;69465;51.630;6.570;2023-06-14T04:53:50;5.37;;;3.80;;
79710;SDS011;69465;51.630;6.570;2023-06-14T04:56:16;4.33;;;3.57;;
79710;SDS011;69465;51.630;6.570;2023-06-14T04:58:43;9.73;;;3.73;;
79710;SDS011;69465;51.630;6.570;2023-06-14T05:01:09;8.93;;;3.77;;
79710;SDS011;69465;51.630;6.570;2023-06-14T05:03:36;4.90;;;3.87;;
79710;SDS011;69465;51.630;6.570;2023-06-14T05:06:02;7.10;;;3.60;;
79710;SDS011;69465;51.630;6.570;2023-06-14T05:08:29;8.50;;;3.40;;
79710;SDS011;69465;51.630;6.570;2023-06-14T05:10:56;7.97;;;3.33;;
79710;SDS011;69465;51.630;6.570;2023-06-14T05:13:23;3.60;;;3.30;;
79710;SDS011;69465;51.630;6.570;2023-06-14T05:15:49;4.40;;;3.27;;
79710;SDS011;69465;51.630;6.570;2023-06-14T05:18:16;5.33;;;3.53;;
79710;SDS011;69465;51.630;6.570;2023-06-14T05:20:43;6.10;;;3.57;;
79710;SDS011;69465;51.630;6.570;2023-06-14T05:23:10;8.70;;;3.63;;
79710;SDS011;69465;51.630;6.570;2023-06-14T05:25:38;3.77;;;3.07;;
79710;SDS011;69465;51.630;6.570;2023-06-14T05:28:04;6.47;;;3.50;;
79710;SDS011;69465;51.630;6.570;2023-06-14T05:30:31;5.17;;;3.73;;
79710;SDS011;69465;51.630;6.570;2023-06-14T05:32:58;9.30;;;3.77;;
79710;SDS011;69465;51.630;6.570;2023-06-14T05:35:25;4.17;;;3.37;;
79710;SDS011;69465;51.630;6.570;2023-06-14T05:37:51;3.83;;;3.27;;
79710;SDS011;69465;51.630;6.570;2023-06-14T05:40:18;5.47;;;3.20;;
79710;SDS011;69465;51.630;6.570;2023-06-14T05:42:45;5.70;;;3.63;;
79710;SDS011;69465;51.630;6.570;2023-06-14T05:45:12;3.70;;;2.83;;
79710;SDS011;69465;51.630;6.570;2023-06-14T05:47:39;6.00;;;3.40;;
79710;SDS011;69465;51.630;6.570;2023-06-14T05:50:06;4.67;;;3.20;;
79710;SDS011;69465;51.630;6.570;2023-06-14T05:52:33;5.37;;;3.60;;
79710;SDS011;69465;51.630;6.570;2023-06-14T05:55:00;5.30;;;3.43;;
79710;SDS011;69465;51.630;6.570;2023-06-14T05:57:27;7.23;;;4.03;;
79710;SDS011;69465;51.630;6.570;2023-06-14T05:59:54;5.60;;;3.30;;
79710;SDS011;69465;51.630;6.570;2023-06-14T06:02:21;6.17;;;3.30;;
79710;SDS011;69465;51.630;6.570;2023-06-14T06:04:47;7.17;;;3.53;;
79710;SDS011;69465;51.630;6.570;2023-06-14T06:07:14;6.10;;;3.30;;
79710;SDS011;69465;51.630;6.570;2023-06-14T06:09:40;7.17;;;3.40;;
79710;SDS011;69465;51.630;6.570;2023-06-14T06:12:07;7.80;;;3.10;;
79710;SDS011;69465;51.630;6.570;2023-06-14T06:14:33;5.50;;;3.07;;
79710;SDS011;69465;51.630;6.570;2023-06-14T06:17:00;6.00;;;2.97;;
79710;SDS011;69465;51.630;6.570;2023-06-14T06:19:27;4.87;;;3.23;;
79710;SDS011;69465;51.630;6.570;2023-06-14T06:21:54;6.57;;;3.47;;
79710;SDS011;69465;51.630;6.570;2023-06-14T06:24:20;5.27;;;2.90;;
79710;SDS011;69465;51.630;6.570;2023-06-14T06:26:47;7.50;;;3.03;;
79710;SDS011;69465;51.630;6.570;2023-06-14T06:29:13;8.43;;;3.27;;
79710;SDS011;69465;51.630;6.570;2023-06-14T06:31:40;4.53;;;2.80;;
79710;SDS011;69465;51.630;6.570;2023-06-14T06:34:07;5.57;;;3.10;;
79710;SDS011;69465;51.630;6.570;2023-06-14T06:36:34;5.40;;;2.90;;
79710;SDS011;69465;51.630;6.570;2023-06-14T06:39:00;4.80;;;3.23;;
79710;SDS011;69465;51.630;6.570;2023-06-14T06:41:27;5.60;;;2.80;;
79710;SDS011;69465;51.630;6.570;2023-06-14T06:43:54;7.13;;;2.90;;
79710;SDS011;69465;51.630;6.570;2023-06-14T06:46:20;4.27;;;2.70;;
79710;SDS011;69465;51.630;6.570;2023-06-14T06:48:47;3.63;;;3.07;;
79710;SDS011;69465;51.630;6.570;2023-06-14T06:51:13;5.43;;;2.87;;
79710;SDS011;69465;51.630;6.570;2023-06-14T06:53:41;5.83;;;2.93;;
79710;SDS011;69465;51.630;6.570;2023-06-14T06:56:14;5.63;;;2.53;;
79710;SDS011;69465;51.630;6.570;2023-06-14T06:58:41;5.23;;;2.60;;
79710;SDS011;69465;51.630;6.570;2023-06-14T07:01:08;3.73;;;2.30;;
79710;SDS011;69465;51.630;6.570;2023-06-14T07:03:34;7.40;;;2.70;;
79710;SDS011;69465;51.630;6.570;2023-06-14T07:06:01;6.83;;;2.30;;
79710;SDS011;69465;51.630;6.570;2023-06-14T07:08:28;4.45;;;2.05;;
79710;SDS011;69465;51.630;6.570;2023-06-14T07:18:14;6.70;;;2.60;;
79710;SDS011;69465;51.630;6.570;2023-06-14T07:20:42;3.80;;;2.33;;
79710;SDS011;69465;51.630;6.570;2023-06-14T07:23:09;2.73;;;2.00;;
79710;SDS011;69465;51.630;6.570;2023-06-14T07:25:35;3.67;;;2.00;;
79710;SDS011;69465;51.630;6.570;2023-06-14T07:28:02;4.03;;;2.30;;
79710;SDS011;69465;51.630;6.570;2023-06-14T07:30:28;3.33;;;2.13;;
79710;SDS011;69465;51.630;6.570;2023-06-14T07:32:55;4.57;;;2.60;;
79710;SDS011;69465;51.630;6.570;2023-06-14T07:35:22;4.87;;;2.27;;
79710;SDS011;69465;51.630;6.570;2023-06-14T07:37:49;5.77;;;2.13;;
79710;SDS011;69465;51.630;6.570;2023-06-14T07:40:15;2.17;;;1.97;;
79710;SDS011;69465;51.630;6.570;2023-06-14T08:07:09;6.30;;;2.27;;
79710;SDS011;69465;51.630;6.570;2023-06-14T08:21:49;5.67;;;3.03;;
79710;SDS011;69465;51.630;6.570;2023-06-14T08:24:16;4.80;;;2.50;;
79710;SDS011;69465;51.630;6.570;2023-06-14T08:26:43;6.00;;;2.77;;
79710;SDS011;69465;51.630;6.570;2023-06-14T08:29:09;3.13;;;2.23;;
79710;SDS011;69465;51.630;6.570;2023-06-14T08:31:36;6.60;;;3.00;;
79710;SDS011;69465;51.630;6.570;2023-06-14T08:34:03;3.67;;;2.20;;
79710;SDS011;69465;51.630;6.570;2023-06-14T08:36:32;2.53;;;2.30;;
79710;SDS011;69465;51.630;6.570;2023-06-14T08:38:59;3.47;;;2.40;;
79710;SDS011;69465;51.630;6.570;2023-06-14T08:41:25;2.30;;;2.10;;
79710;SDS011;69465;51.630;6.570;2023-06-14T08:43:54;3.00;;;2.10;;
79710;SDS011;69465;51.630;6.570;2023-06-14T08:46:22;3.50;;;2.43;;
79710;SDS011;69465;51.630;6.570;2023-06-14T08:48:52;4.60;;;2.40;;
79710;SDS011;69465;51.630;6.570;2023-06-14T08:51:21;5.13;;;2.50;;
79710;SDS011;69465;51.630;6.570;2023-06-14T08:53:52;4.07;;;2.30;;
79710;SDS011;69465;51.630;6.570;2023-06-14T08:56:20;4.20;;;2.30;;
79710;SDS011;69465;51.630;6.570;2023-06-14T08:58:47;4.20;;;1.90;;
79710;SDS011;69465;51.630;6.570;2023-06-14T09:01:15;4.67;;;2.10;;
79710;SDS011;69465;51.630;6.570;2023-06-14T09:03:42;2.87;;;2.00;;
79710;SDS011;69465;51.630;6.570;2023-06-14T09:06:09;3.80;;;2.07;;
79710;SDS011;69465;51.630;6.570;2023-06-14T09:08:36;3.00;;;1.83;;
79710;SDS011;69465;51.630;6.570;2023-06-14T09:11:02;2.80;;;1.97;;
79710;SDS011;69465;51.630;6.570;2023-06-14T09:13:29;4.10;;;2.10;;
79710;SDS011;69465;51.630;6.570;2023-06-14T09:15:57;3.33;;;1.83;;
79710;SDS011;69465;51.630;6.570;2023-06-14T09:18:33;2.70;;;1.70;;
79710;SDS011;69465;51.630;6.570;2023-06-14T09:21:01;1.90;;;1.60;;
79710;SDS011;69465;51.630;6.570;2023-06-14T09:23:28;2.23;;;1.80;;
79710;SDS011;69465;51.630;6.570;2023-06-14T09:25:57;3.07;;;2.10;;
79710;SDS011;69465;51.630;6.570;2023-06-14T09:28:27;3.53;;;1.87;;
79710;SDS011;69465;51.630;6.570;2023-06-14T09:30:54;2.20;;;1.80;;
79710;SDS011;69465;51.630;6.570;2023-06-14T09:33:21;2.27;;;2.07;;
79710;SDS011;69465;51.630;6.570;2023-06-14T09:35:51;2.13;;;1.90;;
79710;SDS011;69465;51.630;6.570;2023-06-14T09:38:18;2.27;;;1.70;;
79710;SDS011;69465;51.630;6.570;2023-06-14T09:40:45;1.70;;;1.60;;
79710;SDS011;69465;51.630;6.570;2023-06-14T09:43:11;3.03;;;1.60;;
79710;SDS011;69465;51.630;6.570;2023-06-14T09:45:38;4.77;;;2.23;;
79710;SDS011;69465;51.630;6.570;2023-06-14T09:48:06;2.37;;;1.90;;
79710;SDS011;69465;51.630;6.570;2023-06-14T09:50:34;2.10;;;1.90;;
79710;SDS011;69465;51.630;6.570;2023-06-14T09:53:07;2.00;;;1.80;;
79710;SDS011;69465;51.630;6.570;2023-06-14T09:55:37;2.20;;;1.80;;
79710;SDS011;69465;51.630;6.570;2023-06-14T09:58:07;2.73;;;1.90;;
79710;SDS011;69465;51.630;6.570;2023-06-14T10:00:35;4.43;;;1.97;;
79710;SDS011;69465;51.630;6.570;2023-06-14T10:03:05;3.33;;;2.03;;
79710;SDS011;69465;51.630;6.570;2023-06-14T10:05:37;2.50;;;1.77;;
79710;SDS011;69465;51.630;6.570;2023-06-14T10:08:09;3.33;;;2.00;;
79710;SDS011;69465;51.630;6.570;2023-06-14T10:10:39;2.50;;;2.23;;
79710;SDS011;69465;51.630;6.570;2023-06-14T10:13:06;3.17;;;2.10;;
79710;SDS011;69465;51.630;6.570;2023-06-14T10:18:21;2.37;;;1.87;;
79710;SDS011;69465;51.630;6.570;2023-06-14T10:21:06;4.03;;;1.90;;
79710;SDS011;69465;51.630;6.570;2023-06-14T10:23:42;2.10;;;1.53;;
79710;SDS011;69465;51.630;6.570;2023-06-14T10:26:17;2.17;;;1.60;;
79710;SDS011;69465;51.630;6.570;2023-06-14T10:28:59;2.47;;;1.80;;
79710;SDS011;69465;51.630;6.570;2023-06-14T10:31:40;2.53;;;1.30;;
79710;SDS011;69465;51.630;6.570;2023-06-14T10:34:08;2.50;;;1.50;;
79710;SDS011;69465;51.630;6.570;2023-06-14T10:36:36;2.40;;;1.70;;
79710;SDS011;69465;51.630;6.570;2023-06-14T10:39:07;2.40;;;1.43;;
79710;SDS011;69465;51.630;6.570;2023-06-14T10:41:41;1.80;;;1.70;;
79710;SDS011;69465;51.630;6.570;2023-06-14T10:46:40;1.60;;;1.50;;
79710;SDS011;69465;51.630;6.570;2023-06-14T10:49:12;3.93;;;1.47;;
79710;SDS011;69465;51.630;6.570;2023-06-14T10:51:42;1.60;;;1.27;;
79710;SDS011;69465;51.630;6.570;2023-06-14T10:54:11;2.33;;;1.27;;
79710;SDS011;69465;51.630;6.570;2023-06-14T10:56:38;3.10;;;1.40;;
79710;SDS011;69465;51.630;6.570;2023-06-14T10:59:19;1.70;;;1.50;;
79710;SDS011;69465;51.630;6.570;2023-06-14T11:05:08;1.23;;;1.13;;
79710;SDS011;69465;51.630;6.570;2023-06-14T11:10:09;1.90;;;1.20;;
79710;SDS011;69465;51.630;6.570;2023-06-14T11:12:47;1.50;;;1.10;;
79710;SDS011;69465;51.630;6.570;2023-06-14T11:15:14;2.53;;;1.40;;
79710;SDS011;69465;51.630;6.570;2023-06-14T11:17:51;1.43;;;1.30;;
79710;SDS011;69465;51.630;6.570;2023-06-14T11:20:18;2.90;;;1.00;;
79710;SDS011;69465;51.630;6.570;2023-06-14T11:22:48;2.90;;;1.50;;
79710;SDS011;69465;51.630;6.570;2023-06-14T11:25:15;3.00;;;1.23;;
79710;SDS011;69465;51.630;6.570;2023-06-14T11:27:42;1.63;;;1.20;;
79710;SDS011;69465;51.630;6.570;2023-06-14T11:30:09;3.03;;;1.30;;
79710;SDS011;69465;51.630;6.570;2023-06-14T11:32:37;2.83;;;1.13;;
79710;SDS011;69465;51.630;6.570;2023-06-14T11:35:05;3.40;;;1.57;;
79710;SDS011;69465;51.630;6.570;2023-06-14T11:37:32;2.77;;;1.30;;
79710;SDS011;69465;51.630;6.570;2023-06-14T11:39:59;2.10;;;1.07;;
79710;SDS011;69465;51.630;6.570;2023-06-14T11:42:27;1.93;;;1.10;;
79710;SDS011;69465;51.630;6.570;2023-06-14T11:44:54;1.53;;;1.13;;
79710;SDS011;69465;51.630;6.570;2023-06-14T11:47:37;1.80;;;1.30;;
79710;SDS011;69465;51.630;6.570;2023-06-14T11:50:06;1.60;;;1.10;;
79710;SDS011;69465;51.630;6.570;2023-06-14T11:52:36;2.10;;;1.17;;
79710;SDS011;69465;51.630;6.570;2023-06-14T11:55:03;2.87;;;1.47;;
79710;SDS011;69465;51.630;6.570;2023-06-14T11:57:33;1.47;;;1.10;;
79710;SDS011;69465;51.630;6.570;2023-06-14T12:00:02;1.77;;;1.37;;
79710;SDS011;69465;51.630;6.570;2023-06-14T12:02:31;2.03;;;1.50;;
79710;SDS011;69465;51.630;6.570;2023-06-14T12:05:03;3.40;;;1.60;;
79710;SDS011;69465;51.630;6.570;2023-06-14T12:07:31;4.47;;;1.40;;
79710;SDS011;69465;51.630;6.570;2023-06-14T12:12:24;2.37;;;1.40;;
79710;SDS011;69465;51.630;6.570;2023-06-14T12:14:52;3.40;;;1.50;;
79710;SDS011;69465;51.630;6.570;2023-06-14T12:17:19;1.67;;;1.10;;
79710;SDS011;69465;51.630;6.570;2023-06-14T12:19:46;3.73;;;1.43;;
79710;SDS011;69465;51.630;6.570;2023-06-14T12:22:14;2.03;;;1.43;;
79710;SDS011;69465;51.630;6.570;2023-06-14T12:24:45;2.73;;;1.53;;
79710;SDS011;69465;51.630;6.570;2023-06-14T12:27:12;2.40;;;1.60;;
79710;SDS011;69465;51.630;6.570;2023-06-14T12:29:39;2.80;;;1.30;;
79710;SDS011;69465;51.630;6.570;2023-06-14T12:32:05;3.73;;;1.50;;
79710;SDS011;69465;51.630;6.570;2023-06-14T12:34:33;5.17;;;1.70;;
79710;SDS011;69465;51.630;6.570;2023-06-14T12:36:59;2.10;;;1.67;;
79710;SDS011;69465;51.630;6.570;2023-06-14T12:39:26;2.40;;;1.33;;
79710;SDS011;69465;51.630;6.570;2023-06-14T12:41:52;5.13;;;1.50;;
79710;SDS011;69465;51.630;6.570;2023-06-14T12:44:19;2.73;;;1.47;;
79710;SDS011;69465;51.630;6.570;2023-06-14T12:46:45;4.20;;;1.63;;
79710;SDS011;69465;51.630;6.570;2023-06-14T12:49:12;1.57;;;1.40;;
79710;SDS011;69465;51.630;6.570;2023-06-14T12:51:39;1.73;;;1.37;;
79710;SDS011;69465;51.630;6.570;2023-06-14T12:54:06;2.73;;;1.60;;
79710;SDS011;69465;51.630;6.570;2023-06-14T12:56:33;2.30;;;1.50;;
79710;SDS011;69465;51.630;6.570;2023-06-14T12:59:00;2.13;;;1.20;;
79710;SDS011;69465;51.630;6.570;2023-06-14T13:01:26;2.70;;;1.33;;
79710;SDS011;69465;51.630;6.570;2023-06-14T13:03:53;3.73;;;1.60;;
79710;SDS011;69465;51.630;6.570;2023-06-14T13:06:20;2.80;;;1.33;;
79710;SDS011;69465;51.630;6.570;2023-06-14T13:08:47;2.87;;;1.57;;
79710;SDS011;69465;51.630;6.570;2023-06-14T13:11:15;1.83;;;1.53;;
79710;SDS011;69465;51.630;6.570;2023-06-14T13:13:42;1.97;;;1.33;;
79710;SDS011;69465;51.630;6.570;2023-06-14T13:16:08;1.50;;;1.40;;
79710;SDS011;69465;51.630;6.570;2023-06-14T13:18:35;1.93;;;1.80;;
79710;SDS011;69465;51.630;6.570;2023-06-14T13:21:01;1.90;;;1.70;;
79710;SDS011;69465;51.630;6.570;2023-06-14T13:23:28;1.93;;;1.73;;
79710;SDS011;69465;51.630;6.570;2023-06-14T13:25:55;2.07;;;1.63;;
79710;SDS011;69465;51.630;6.570;2023-06-14T13:28:21;3.33;;;1.63;;
79710;SDS011;69465;51.630;6.570;2023-06-14T13:30:48;1.97;;;1.67;;
79710;SDS011;69465;51.630;6.570;2023-06-14T13:33:15;1.83;;;1.63;;
79710;SDS011;69465;51.630;6.570;2023-06-14T13:35:41;3.10;;;1.80;;
79710;SDS011;69465;51.630;6.570;2023-06-14T13:38:09;2.80;;;1.70;;
79710;SDS011;69465;51.630;6.570;2023-06-14T13:40:36;2.47;;;1.80;;
79710;SDS011;69465;51.630;6.570;2023-06-14T13:43:03;2.17;;;1.47;;
79710;SDS011;69465;51.630;6.570;2023-06-14T13:45:30;1.83;;;1.53;;
79710;SDS011;69465;51.630;6.570;2023-06-14T13:47:56;1.80;;;1.63;;
79710;SDS011;69465;51.630;6.570;2023-06-14T13:50:23;2.00;;;1.80;;
79710;SDS011;69465;51.630;6.570;2023-06-14T13:52:49;3.93;;;1.97;;
79710;SDS011;69465;51.630;6.570;2023-06-14T13:55:16;3.67;;;1.90;;
79710;SDS011;69465;51.630;6.570;2023-06-14T13:57:43;1.90;;;1.60;;
79710;SDS011;69465;51.630;6.570;2023-06-14T14:00:09;3.80;;;1.73;;
79710;SDS011;69465;51.630;6.570;2023-06-14T14:02:36;3.40;;;1.90;;
79710;SDS011;69465;51.630;6.570;2023-06-14T14:05:03;3.47;;;2.23;;
79710;SDS011;69465;51.630;6.570;2023-06-14T14:07:30;1.67;;;1.47;;
79710;SDS011;69465;51.630;6.570;2023-06-14T14:09:57;5.27;;;2.10;;
79710;SDS011;69465;51.630;6.570;2023-06-14T14:12:23;2.07;;;1.50;;
79710;SDS011;69465;51.630;6.570;2023-06-14T14:14:50;2.60;;;1.90;;
79710;SDS011;69465;51.630;6.570;2023-06-14T14:17:17;2.67;;;2.03;;
79710;SDS011;69465;51.630;6.570;2023-06-14T14:19:43;2.20;;;2.00;;
79710;SDS011;69465;51.630;6.570;2023-06-14T14:22:10;2.17;;;2.00;;
79710;SDS011;69465;51.630;6.570;2023-06-14T14:24:36;4.30;;;2.20;;
79710;SDS011;69465;51.630;6.570;2023-06-14T14:27:03;3.70;;;2.33;;
79710;SDS011;69465;51.630;6.570;2023-06-14T14:29:30;2.27;;;2.07;;
79710;SDS011;69465;51.630;6.570;2023-06-14T14:31:56;5.03;;;2.30;;
79710;SDS011;69465;51.630;6.570;2023-06-14T14:34:26;3.13;;;2.30;;
79710;SDS011;69465;51.630;6.570;2023-06-14T14:36:53;2.70;;;2.13;;
79710;SDS011;69465;51.630;6.570;2023-06-14T14:39:20;3.87;;;2.23;;
79710;SDS011;69465;51.630;6.570;2023-06-14T14:41:46;4.47;;;2.20;;
79710;SDS011;69465;51.630;6.570;2023-06-14T14:44:13;3.80;;;2.10;;
79710;SDS011;69465;51.630;6.570;2023-06-14T14:46:40;3.63;;;2.23;;
79710;SDS011;69465;51.630;6.570;2023-06-14T14:49:07;2.30;;;2.10;;
79710;SDS011;69465;51.630;6.570;2023-06-14T14:51:33;2.47;;;2.10;;
79710;SDS011;69465;51.630;6.570;2023-06-14T14:54:00;2.73;;;2.20;;
79710;SDS011;69465;51.630;6.570;2023-06-14T14:56:27;2.40;;;2.20;;
79710;SDS011;69465;51.630;6.570;2023-06-14T14:58:53;3.13;;;2.77;;
79710;SDS011;69465;51.630;6.570;2023-06-14T15:01:20;3.57;;;2.40;;
79710;SDS011;69465;51.630;6.570;2023-06-14T15:03:48;3.30;;;2.70;;
79710;SDS011;69465;51.630;6.570;2023-06-14T15:06:25;5.97;;;2.40;;
79710;SDS011;69465;51.630;6.570;2023-06-14T15:08:52;2.90;;;2.60;;
79710;SDS011;69465;51.630;6.570;2023-06-14T15:11:18;4.57;;;2.50;;
79710;SDS011;69465;51.630;6.570;2023-06-14T15:13:46;3.50;;;2.40;;
79710;SDS011;69465;51.630;6.570;2023-06-14T15:16:13;4.07;;;2.40;;
79710;SDS011;69465;51.630;6.570;2023-06-14T15:18:39;2.50;;;2.27;;
79710;SDS011;69465;51.630;6.570;2023-06-14T15:21:06;5.50;;;2.30;;
79710;SDS011;69465;51.630;6.570;2023-06-14T15:23:32;2.70;;;2.33;;
79710;SDS011;69465;51.630;6.570;2023-06-14T15:25:59;3.97;;;2.53;;
79710;SDS011;69465;51.630;6.570;2023-06-14T15:28:26;3.90;;;2.10;;
79710;SDS011;69465;51.630;6.570;2023-06-14T15:30:52;4.00;;;2.60;;
79710;SDS011;69465;51.630;6.570;2023-06-14T15:33:19;2.80;;;2.60;;
79710;SDS011;69465;51.630;6.570;2023-06-14T15:35:46;3.53;;;2.20;;
79710;SDS011;69465;51.630;6.570;2023-06-14T15:38:13;4.73;;;2.80;;
79710;SDS011;69465;51.630;6.570;2023-06-14T15:40:39;3.03;;;2.47;;
79710;SDS011;69465;51.630;6.570;2023-06-14T15:43:06;4.30;;;2.60;;
79710;SDS011;69465;51.630;6.570;2023-06-14T15:45:33;2.83;;;2.43;;
79710;SDS011;69465;51.630;6.570;2023-06-14T15:47:59;3.47;;;2.50;;
79710;SDS011;69465;51.630;6.570;2023-06-14T15:50:26;2.93;;;2.70;;